Time;durP1;ratioP1;P1;durP2;ratioP2;P2;SDS_P1;SDS_P2;PMS_P1;PMS_P2;Temp;Humidity;BMP_temperature;BMP_pressure;BME280_temperature;BME280_humidity;BME280_pressure;Samples;Min_cycle;Max_cycle;Signal;HPM_P1;HPM_P2
2022/04/05 00:00:14;;;;;;;0.35;0.35;;;3.90;1.00;;;;;;5054084;28;20136;-71
2022/04/05 00:02:40;;;;;;;0.52;0.52;;;3.90;1.00;;;;;;5054340;28;20487;-70
2022/04/05 00:05:07;;;;;;;0.40;0.38;;;3.80;1.00;;;;;;5054333;28;20515;-70
2022/04/05 00:07:33;;;;;;;0.63;0.63;;;3.80;1.00;;;;;;5054251;28;20102;-70
2022/04/05 00:09:58;;;;;;;0.40;0.40;;;3.90;1.00;;;;;;5054536;28;20025;-70
2022/04/05 00:12:24;;;;;;;0.20;0.20;;;3.90;1.00;;;;;;5054249;28;20186;-70
2022/04/05 00:14:50;;;;;;;0.30;0.30;;;3.90;1.00;;;;;;5053905;28;20053;-70
2022/04/05 00:17:17;;;;;;;1.05;1.05;;;3.90;1.00;;;;;;5054188;28;20052;-70
2022/04/05 00:19:43;;;;;;;0.50;0.50;;;3.80;1.00;;;;;;5053955;28;20043;-70
2022/04/05 00:22:08;;;;;;;0.65;0.65;;;3.80;1.00;;;;;;5054149;28;20498;-70
2022/04/05 00:24:34;;;;;;;4.80;1.15;;;3.70;1.00;;;;;;5053842;28;20040;-70
2022/04/05 00:27:00;;;;;;;0.47;0.47;;;3.50;1.00;;;;;;5054086;28;20041;-70
2022/04/05 00:29:26;;;;;;;0.40;0.40;;;3.40;1.00;;;;;;5053883;28;20106;-70
2022/04/05 00:31:52;;;;;;;0.20;0.20;;;3.20;1.00;;;;;;5053751;28;20041;-70
2022/04/05 00:34:18;;;;;;;0.30;0.25;;;3.10;1.00;;;;;;5053920;28;20043;-71
2022/04/05 00:36:45;;;;;;;0.22;0.22;;;3.00;1.00;;;;;;5057831;28;20127;-70
2022/04/05 00:39:11;;;;;;;0.20;0.20;;;2.90;1.00;;;;;;5057792;28;20032;-70
2022/04/05 00:41:37;;;;;;;0.65;0.65;;;2.90;1.00;;;;;;5056493;28;20086;-70
2022/04/05 00:44:03;;;;;;;26.00;1.35;;;2.90;1.00;;;;;;5057262;28;20036;-70
2022/04/05 00:46:30;;;;;;;0.22;0.22;;;2.80;1.00;;;;;;5058207;28;20060;-70
2022/04/05 00:48:59;;;;;;;3.78;1.55;;;2.80;1.00;;;;;;5057316;28;20119;-70
2022/04/05 00:51:26;;;;;;;0.32;0.32;;;3.00;1.00;;;;;;5057602;28;20068;-70
2022/04/05 00:53:54;;;;;;;0.70;0.70;;;2.80;1.00;;;;;;5057742;28;20037;-70
2022/04/05 00:56:22;;;;;;;0.73;0.73;;;2.80;1.00;;;;;;5057174;28;20391;-70
2022/04/05 00:58:50;;;;;;;0.80;0.80;;;2.70;1.00;;;;;;5056928;28;20037;-70
2022/04/05 01:01:19;;;;;;;0.03;0.03;;;2.70;1.00;;;;;;5058048;28;20061;-70
2022/04/05 01:03:48;;;;;;;0.68;0.68;;;2.80;1.00;;;;;;5057808;28;20056;-70
2022/04/05 01:06:38;;;;;;;0.20;0.20;;;2.80;1.00;;;;;;5057221;28;20037;-70
2022/04/05 01:09:09;;;;;;;0.20;0.20;;;2.90;1.00;;;;;;5057210;28;20496;-70
2022/04/05 01:11:35;;;;;;;0.77;0.77;;;2.80;1.00;;;;;;5057297;28;20036;-70
2022/04/05 01:14:01;;;;;;;1.15;1.15;;;2.80;1.00;;;;;;5057501;28;20045;-70
2022/04/05 01:16:27;;;;;;;1.45;1.35;;;2.80;1.00;;;;;;5057420;28;20045;-70
2022/04/05 01:18:53;;;;;;;0.60;0.60;;;2.80;1.00;;;;;;5057109;28;20033;-70
2022/04/05 01:21:20;;;;;;;0.35;0.35;;;2.70;1.00;;;;;;5057410;28;20049;-70
2022/04/05 01:24:07;;;;;;;0.08;0.08;;;2.70;1.00;;;;;;5056003;28;20055;-70
2022/04/05 01:26:43;;;;;;;0.45;0.45;;;2.50;1.00;;;;;;5057340;28;20036;-70
2022/04/05 01:29:10;;;;;;;0.43;0.43;;;2.50;1.00;;;;;;5057286;28;20497;-70
2022/04/05 01:31:37;;;;;;;0.30;0.30;;;2.30;1.00;;;;;;5056856;28;20108;-70
2022/04/05 01:34:03;;;;;;;0.10;0.10;;;2.20;1.00;;;;;;5056960;28;20044;-70
2022/04/05 01:36:29;;;;;;;1.00;0.75;;;2.10;1.00;;;;;;5056745;28;20044;-70
2022/04/05 01:38:55;;;;;;;0.63;0.63;;;2.20;1.00;;;;;;5057296;28;20123;-70
2022/04/05 01:41:20;;;;;;;0.93;0.70;;;2.10;1.00;;;;;;5057240;28;20037;-70
2022/04/05 01:43:46;;;;;;;0.13;0.13;;;2.50;1.00;;;;;;5056454;28;20044;-70
2022/04/05 01:46:12;;;;;;;11.70;0.85;;;2.40;1.00;;;;;;5055750;28;20041;-70
2022/04/05 01:48:39;;;;;;;0.10;0.10;;;2.20;1.00;;;;;;5056650;28;20090;-70
2022/04/05 01:51:05;;;;;;;0.05;0.05;;;2.10;1.00;;;;;;5056831;28;20048;-70
2022/04/05 01:53:31;;;;;;;0.55;0.55;;;2.10;1.00;;;;;;5056698;28;20048;-70
2022/04/05 01:55:57;;;;;;;0.45;0.45;;;2.10;1.00;;;;;;5056697;28;20513;-70
2022/04/05 01:58:24;;;;;;;0.47;0.40;;;2.20;1.00;;;;;;5056701;28;20036;-70
2022/04/05 02:00:50;;;;;;;0.25;0.25;;;2.20;1.00;;;;;;5056573;28;20049;-70
2022/04/05 02:03:16;;;;;;;1.45;1.10;;;2.20;1.00;;;;;;5056491;28;20037;-70
2022/04/05 02:05:44;;;;;;;0.20;0.20;;;2.30;1.00;;;;;;5056318;28;20510;-70
2022/04/05 02:08:09;;;;;;;0.22;0.22;;;2.50;1.00;;;;;;5056164;28;20037;-70
2022/04/05 02:10:35;;;;;;;0.50;0.50;;;2.30;1.00;;;;;;5056572;28;20040;-70
2022/04/05 02:13:01;;;;;;;0.40;0.40;;;2.20;1.00;;;;;;5056586;28;20037;-70
2022/04/05 02:15:28;;;;;;;0.17;0.17;;;2.20;1.00;;;;;;5055952;28;20064;-70
2022/04/05 02:17:54;;;;;;;0.35;0.35;;;2.10;1.00;;;;;;5055949;28;20060;-70
2022/04/05 02:20:19;;;;;;;0.20;0.20;;;2.00;1.00;;;;;;5056494;28;20037;-70
2022/04/05 02:22:45;;;;;;;0.30;0.30;;;2.00;1.00;;;;;;5056211;28;20473;-70
2022/04/05 02:25:11;;;;;;;0.73;0.73;;;1.90;1.00;;;;;;5055853;28;20056;-70
2022/04/05 02:27:41;;;;;;;0.43;0.43;;;1.70;1.00;;;;;;5056075;28;20365;-70
2022/04/05 02:30:07;;;;;;;0.52;0.52;;;1.60;1.00;;;;;;5055762;28;20044;-70
2022/04/05 02:32:33;;;;;;;0.00;0.00;;;1.50;1.00;;;;;;5055722;28;20049;-70
2022/04/05 02:34:58;;;;;;;0.22;0.22;;;1.60;1.00;;;;;;5055551;28;20052;-70
2022/04/05 02:37:24;;;;;;;0.63;0.63;;;1.50;1.00;;;;;;5056149;28;20502;-70
2022/04/05 02:39:50;;;;;;;0.10;0.10;;;1.40;1.00;;;;;;5055569;28;20036;-70
2022/04/05 02:42:16;;;;;;;0.17;0.17;;;1.60;1.00;;;;;;5055510;28;20041;-70
2022/04/05 02:44:42;;;;;;;0.38;0.38;;;1.60;1.00;;;;;;5055601;28;20048;-70
2022/04/05 02:47:09;;;;;;;0.10;0.10;;;1.60;1.00;;;;;;5055963;28;20479;-70
2022/04/05 02:49:34;;;;;;;0.25;0.25;;;1.40;1.00;;;;;;5055798;28;20091;-70
2022/04/05 02:52:00;;;;;;;0.50;0.50;;;1.30;1.00;;;;;;5055590;28;20040;-70
2022/04/05 02:54:26;;;;;;;0.22;0.22;;;1.30;1.00;;;;;;5055499;28;20118;-70
2022/04/05 02:56:52;;;;;;;0.10;0.10;;;1.30;1.00;;;;;;5055441;28;20551;-70
2022/04/05 02:59:18;;;;;;;0.52;0.20;;;1.20;1.00;;;;;;5054705;28;20043;-70
2022/04/05 03:01:44;;;;;;;0.30;0.30;;;1.20;1.00;;;;;;5055426;28;20041;-70
2022/04/05 03:04:10;;;;;;;0.00;0.00;;;1.20;1.00;;;;;;5054821;28;20407;-70
2022/04/05 03:06:35;;;;;;;0.20;0.20;;;1.20;1.00;;;;;;5054780;28;20043;-70
2022/04/05 03:09:01;;;;;;;0.35;0.35;;;1.40;1.00;;;;;;5054732;28;20503;-70
2022/04/05 03:11:27;;;;;;;0.10;0.10;;;1.30;1.00;;;;;;5054948;28;20125;-70
2022/04/05 03:13:53;;;;;;;1.17;1.08;;;1.30;1.00;;;;;;5054815;28;20479;-70
2022/04/05 03:16:19;;;;;;;0.85;0.65;;;1.30;1.00;;;;;;5054586;28;20040;-70
2022/04/05 03:18:50;;;;;;;0.20;0.20;;;1.30;1.00;;;;;;5036801;28;20131;-70
2022/04/05 03:21:16;;;;;;;0.80;0.55;;;1.20;1.00;;;;;;5054539;28;20104;-70
2022/04/05 03:23:45;;;;;;;0.30;0.30;;;1.40;1.00;;;;;;5054738;28;20140;-70
2022/04/05 03:26:11;;;;;;;0.45;0.45;;;1.20;1.00;;;;;;5054402;28;20029;-70
2022/04/05 03:28:36;;;;;;;0.43;0.43;;;1.30;1.00;;;;;;5054389;28;20395;-70
2022/04/05 03:31:03;;;;;;;8.00;1.38;;;1.20;1.00;;;;;;5054642;28;20025;-70
2022/04/05 03:33:30;;;;;;;0.35;0.35;;;1.30;1.00;;;;;;5054285;28;20045;-70
2022/04/05 03:35:56;;;;;;;0.75;0.75;;;1.70;1.00;;;;;;5054247;28;20091;-71
2022/04/05 03:38:22;;;;;;;0.20;0.20;;;1.60;1.00;;;;;;5054345;28;20044;-70
2022/04/05 03:41:00;;;;;;;0.38;0.38;;;1.50;1.00;;;;;;5054643;28;20029;-70
2022/04/05 03:43:27;;;;;;;0.00;0.00;;;1.40;1.00;;;;;;5054526;28;20048;-70
2022/04/05 03:45:53;;;;;;;0.47;0.47;;;1.40;1.00;;;;;;5054421;28;20391;-70
2022/04/05 03:48:22;;;;;;;0.28;0.28;;;1.50;1.00;;;;;;5054544;28;20103;-70
2022/04/05 03:50:49;;;;;;;0.80;0.38;;;1.50;1.00;;;;;;5052567;28;20434;-70
2022/04/05 03:53:28;;;;;;;0.38;0.35;;;1.70;1.00;;;;;;5054606;28;20044;-70
2022/04/05 03:56:04;;;;;;;0.28;0.28;;;1.70;1.00;;;;;;5054445;28;20484;-70
2022/04/05 03:58:43;;;;;;;0.10;0.10;;;1.70;1.00;;;;;;5053622;28;20033;-70
2022/04/05 04:01:09;;;;;;;0.20;0.20;;;1.90;1.00;;;;;;5062351;28;20097;-70
2022/04/05 04:03:35;;;;;;;0.57;0.57;;;1.80;1.00;;;;;;5074378;28;20131;-71
2022/04/05 04:06:01;;;;;;;0.10;0.10;;;1.70;1.00;;;;;;5074238;28;20045;-70
2022/04/05 04:08:27;;;;;;;0.52;0.50;;;1.70;1.00;;;;;;5061770;28;20115;-70
2022/04/05 04:10:53;;;;;;;0.10;0.10;;;1.70;1.00;;;;;;5067918;28;20070;-71
2022/04/05 04:13:19;;;;;;;0.30;0.30;;;1.70;1.00;;;;;;5078244;28;20499;-70
2022/04/05 04:15:48;;;;;;;0.17;0.17;;;1.90;1.00;;;;;;5065282;28;20040;-71
2022/04/05 04:18:14;;;;;;;0.60;0.60;;;1.90;1.00;;;;;;5078831;28;20032;-71
2022/04/05 04:20:42;;;;;;;0.10;0.10;;;2.20;1.00;;;;;;5068565;28;20037;-71
2022/04/05 04:23:11;;;;;;;0.65;0.65;;;2.10;1.00;;;;;;5058055;28;20039;-71
2022/04/05 04:25:39;;;;;;;0.80;0.80;;;2.10;1.00;;;;;;5061420;28;20116;-70
2022/04/05 04:28:06;;;;;;;0.75;0.75;;;2.20;1.00;;;;;;5067021;28;20529;-71
2022/04/05 04:30:33;;;;;;;3.15;0.60;;;2.30;1.00;;;;;;5058911;28;20070;-70
2022/04/05 04:32:59;;;;;;;0.20;0.20;;;2.50;1.00;;;;;;5061309;28;20041;-70
2022/04/05 04:35:25;;;;;;;0.55;0.55;;;2.50;1.00;;;;;;5074434;28;20454;-71
2022/04/05 04:37:51;;;;;;;0.52;0.50;;;2.60;1.00;;;;;;5078121;28;20085;-70
2022/04/05 04:40:18;;;;;;;0.20;0.20;;;2.70;1.00;;;;;;5063393;28;20124;-70
2022/04/05 04:42:44;;;;;;;0.60;0.55;;;2.60;1.00;;;;;;5057520;28;20184;-71
2022/04/05 04:45:11;;;;;;;0.43;0.43;;;2.60;1.00;;;;;;5057546;28;20131;-71
2022/04/05 04:47:37;;;;;;;0.82;0.82;;;2.70;1.00;;;;;;5058261;28;20029;-71
2022/04/05 04:50:05;;;;;;;0.55;0.55;;;2.90;1.00;;;;;;5057844;28;20052;-69
2022/04/05 04:52:30;;;;;;;0.45;0.43;;;2.80;1.00;;;;;;5057846;28;20102;-70
2022/04/05 04:54:56;;;;;;;0.20;0.20;;;2.80;1.00;;;;;;5068336;28;20056;-71
2022/04/05 04:57:23;;;;;;;0.20;0.20;;;2.80;1.00;;;;;;5077524;28;20036;-71
2022/04/05 04:59:49;;;;;;;0.85;0.35;;;2.80;1.00;;;;;;5077631;28;20495;-71
2022/04/05 05:02:16;;;;;;;0.32;0.32;;;2.80;1.00;;;;;;5077762;28;20115;-71
2022/04/05 05:04:41;;;;;;;0.10;0.10;;;2.80;1.00;;;;;;5077378;28;20059;-71
2022/04/05 05:07:07;;;;;;;5.95;1.60;;;2.90;1.00;;;;;;5077355;28;20032;-71
2022/04/05 05:09:33;;;;;;;1.25;0.50;;;2.90;1.00;;;;;;5077377;28;20036;-70
2022/04/05 05:12:00;;;;;;;0.65;0.65;;;3.00;1.00;;;;;;5077584;28;20032;-70
2022/04/05 05:14:27;;;;;;;0.90;0.90;;;2.90;1.00;;;;;;5077254;28;20194;-70
2022/04/05 05:16:54;;;;;;;0.22;0.22;;;2.90;1.00;;;;;;5077404;28;20029;-71
2022/04/05 05:19:20;;;;;;;0.60;0.60;;;2.70;1.00;;;;;;5077440;28;20040;-71
2022/04/05 05:21:47;;;;;;;0.43;0.43;;;2.80;1.00;;;;;;5077367;28;20039;-71
2022/04/05 05:24:12;;;;;;;0.38;0.38;;;2.80;1.00;;;;;;5076901;28;20123;-71
2022/04/05 05:26:38;;;;;;;0.50;0.50;;;2.80;1.00;;;;;;5077288;28;20064;-71
2022/04/05 05:29:04;;;;;;;0.20;0.20;;;2.70;1.00;;;;;;5076773;28;20044;-71
2022/04/05 05:31:30;;;;;;;0.68;0.68;;;2.50;1.00;;;;;;5076927;28;20061;-71
2022/04/05 05:33:56;;;;;;;0.50;0.50;;;2.40;1.00;;;;;;5076770;28;20052;-71
2022/04/05 05:36:22;;;;;;;0.85;0.85;;;2.40;1.00;;;;;;5063784;28;20037;-71
2022/04/05 05:38:48;;;;;;;0.90;0.88;;;2.20;1.00;;;;;;5056800;28;20487;-71
2022/04/05 05:41:13;;;;;;;1.65;1.45;;;2.10;1.00;;;;;;5056748;28;20048;-71
2022/04/05 05:43:41;;;;;;;1.88;0.60;;;2.10;1.00;;;;;;5056607;28;20077;-71
2022/04/05 05:46:07;;;;;;;0.15;0.15;;;2.00;1.00;;;;;;5056717;28;20067;-71
2022/04/05 05:48:33;;;;;;;0.13;0.13;;;2.00;1.00;;;;;;5058288;28;20080;-70
2022/04/05 05:50:59;;;;;;;0.35;0.35;;;2.00;1.00;;;;;;5070590;28;20033;-71
2022/04/05 05:53:29;;;;;;;0.15;0.15;;;2.10;1.00;;;;;;5070279;28;20041;-72
2022/04/05 05:55:58;;;;;;;0.10;0.10;;;2.10;1.00;;;;;;5064285;28;20048;-72
2022/04/05 05:58:24;;;;;;;0.20;0.20;;;2.00;1.00;;;;;;5063945;28;20045;-72
2022/04/05 06:00:51;;;;;;;0.30;0.30;;;2.30;1.00;;;;;;5063350;28;20064;-72
2022/04/05 06:03:17;;;;;;;0.55;0.55;;;3.50;1.00;;;;;;5066352;28;20498;-73
2022/04/05 06:05:43;;;;;;;1.20;1.08;;;4.50;1.00;;;;;;5068730;28;20056;-74
2022/04/05 06:08:10;;;;;;;1.30;1.20;;;5.80;1.00;;;;;;5069469;28;20032;-73
2022/04/05 06:10:36;;;;;;;1.20;1.10;;;6.80;1.00;;;;;;5074503;28;20129;-73
2022/04/05 06:13:02;;;;;;;1.73;1.30;;;7.70;1.00;;;;;;5055882;28;20047;-72
2022/04/05 06:15:29;;;;;;;0.10;0.10;;;8.90;1.00;;;;;;5064878;28;20052;-73
2022/04/05 06:17:55;;;;;;;0.20;0.20;;;10.50;1.00;;;;;;5055943;28;20124;-73
2022/04/05 06:20:22;;;;;;;0.32;0.32;;;10.70;99.90;;;;;;5055273;28;20094;-72
2022/04/05 06:22:52;;;;;;;0.90;0.90;;;11.40;99.90;;;;;;5061478;28;20044;-73
2022/04/05 06:25:21;;;;;;;0.85;0.50;;;11.80;99.90;;;;;;5075786;28;20044;-73
2022/04/05 06:27:47;;;;;;;0.28;0.28;;;11.80;99.90;;;;;;5075826;28;20479;-73
2022/04/05 06:30:14;;;;;;;0.10;0.10;;;10.20;99.90;;;;;;5075795;28;20037;-72
2022/04/05 06:32:41;;;;;;;2.17;1.73;;;10.00;99.90;;;;;;5059734;28;20132;-73
2022/04/05 06:35:09;;;;;;;0.40;0.40;;;8.50;99.90;;;;;;5055086;28;20056;-72
2022/04/05 06:37:36;;;;;;;1.50;0.82;;;7.50;99.90;;;;;;5056700;28;20037;-73
2022/04/05 06:40:04;;;;;;;0.30;0.30;;;7.00;1.00;;;;;;5055781;28;20041;-72
2022/04/05 06:42:30;;;;;;;0.77;0.77;;;6.20;1.00;;;;;;5055592;28;20492;-73
2022/04/05 06:44:56;;;;;;;0.93;0.93;;;6.00;1.00;;;;;;5062873;28;20131;-72
2022/04/05 06:47:21;;;;;;;6.80;0.95;;;6.00;1.00;;;;;;5073626;28;20032;-72
2022/04/05 06:49:47;;;;;;;1.00;1.00;;;5.80;1.00;;;;;;5075417;28;20044;-73
2022/04/05 06:52:14;;;;;;;0.70;0.70;;;5.80;1.00;;;;;;5074010;28;20044;-74
2022/04/05 06:54:40;;;;;;;0.10;0.10;;;5.70;1.00;;;;;;5075268;28;20036;-74
2022/04/05 06:57:05;;;;;;;0.30;0.30;;;5.60;1.00;;;;;;5075223;28;20036;-74
2022/04/05 06:59:31;;;;;;;0.30;0.30;;;5.60;1.00;;;;;;5074453;28;20048;-74
2022/04/05 07:01:57;;;;;;;0.20;0.20;;;5.50;1.00;;;;;;5075247;28;20045;-74
2022/04/05 07:04:23;;;;;;;1.60;0.95;;;5.60;1.00;;;;;;5075010;28;20426;-73
2022/04/05 07:06:49;;;;;;;1.50;0.52;;;5.60;1.00;;;;;;5074771;28;20071;-74
2022/04/05 07:09:15;;;;;;;0.75;0.75;;;5.50;1.00;;;;;;5075612;28;20491;-74
2022/04/05 07:11:41;;;;;;;0.65;0.65;;;5.60;1.00;;;;;;5074729;28;20130;-74
2022/04/05 07:14:07;;;;;;;1.00;1.00;;;5.50;1.00;;;;;;5074718;28;20055;-74
2022/04/05 07:16:33;;;;;;;0.30;0.30;;;5.50;1.00;;;;;;5074635;28;20040;-74
2022/04/05 07:18:59;;;;;;;1.13;0.95;;;5.60;1.00;;;;;;5074837;28;20037;-74
2022/04/05 07:21:26;;;;;;;0.13;0.13;;;5.60;1.00;;;;;;5075106;28;20479;-74
2022/04/05 07:23:52;;;;;;;1.20;0.35;;;5.60;1.00;;;;;;5074409;28;20094;-74
2022/04/05 07:26:21;;;;;;;0.65;0.65;;;5.70;1.00;;;;;;5074440;28;20037;-74
2022/04/05 07:28:48;;;;;;;0.57;0.47;;;5.80;1.00;;;;;;5074205;28;20048;-73
2022/04/05 07:31:14;;;;;;;0.40;0.40;;;5.80;1.00;;;;;;5074750;28;20394;-74
2022/04/05 07:33:40;;;;;;;0.38;0.38;;;5.90;1.00;;;;;;5074921;28;20080;-74
2022/04/05 07:36:06;;;;;;;0.28;0.28;;;5.90;1.00;;;;;;5074338;28;20079;-73
2022/04/05 07:38:32;;;;;;;0.38;0.38;;;5.90;1.00;;;;;;5074350;28;20487;-74
2022/04/05 07:40:57;;;;;;;0.63;0.63;;;6.00;1.00;;;;;;5074667;28;20503;-74
2022/04/05 07:43:26;;;;;;;3.42;2.03;;;6.20;1.00;;;;;;5074852;28;20044;-74
2022/04/05 07:45:53;;;;;;;0.98;0.98;;;6.30;1.00;;;;;;5073342;28;20145;-74
2022/04/05 07:48:21;;;;;;;0.88;0.70;;;6.20;1.00;;;;;;5074506;28;20063;-74
2022/04/05 07:50:48;;;;;;;0.30;0.30;;;6.20;1.00;;;;;;5074709;28;20032;-74
2022/04/05 07:53:14;;;;;;;0.60;0.60;;;6.20;1.00;;;;;;5074427;28;20047;-74
2022/04/05 07:55:40;;;;;;;1.42;0.95;;;6.30;1.00;;;;;;5075010;28;20064;-74
2022/04/05 07:58:06;;;;;;;3.65;2.40;;;6.30;1.00;;;;;;5074139;28;20048;-74
2022/04/05 08:00:32;;;;;;;1.38;1.27;;;6.40;1.00;;;;;;5074042;28;20449;-74
2022/04/05 08:02:58;;;;;;;1.77;1.42;;;6.40;1.00;;;;;;5074965;28;20032;-74
2022/04/05 08:05:24;;;;;;;1.00;1.00;;;6.60;1.00;;;;;;5074442;28;20074;-74
2022/04/05 08:07:50;;;;;;;0.15;0.15;;;6.50;1.00;;;;;;5074383;28;20029;-73
2022/04/05 08:10:17;;;;;;;0.65;0.65;;;6.60;1.00;;;;;;5074195;28;20043;-74
2022/04/05 08:12:45;;;;;;;0.32;0.32;;;6.70;1.00;;;;;;5074553;28;20032;-73
2022/04/05 08:15:13;;;;;;;0.85;0.85;;;6.70;1.00;;;;;;5074060;28;20044;-74
2022/04/05 08:17:38;;;;;;;1.98;0.95;;;6.70;1.00;;;;;;5074137;28;20036;-74
2022/04/05 08:20:05;;;;;;;0.25;0.25;;;6.80;1.00;;;;;;5074145;28;20041;-74
2022/04/05 08:22:31;;;;;;;0.50;0.50;;;6.90;1.00;;;;;;5073761;28;20110;-74
2022/04/05 08:24:57;;;;;;;0.60;0.60;;;6.90;1.00;;;;;;5074101;28;20044;-73
2022/04/05 08:27:23;;;;;;;0.65;0.40;;;6.90;1.00;;;;;;5074348;28;20033;-74
2022/04/05 08:29:50;;;;;;;3.40;1.45;;;7.00;1.00;;;;;;5074186;28;20094;-74
2022/04/05 08:32:16;;;;;;;2.35;0.93;;;7.10;1.00;;;;;;5074050;28;20102;-74
2022/04/05 08:34:42;;;;;;;0.75;0.52;;;7.10;1.00;;;;;;5074340;28;20052;-74
2022/04/05 08:37:09;;;;;;;0.30;0.30;;;7.20;1.00;;;;;;5074052;28;20115;-74
2022/04/05 08:39:35;;;;;;;1.17;1.10;;;7.30;1.00;;;;;;5073681;28;20044;-74
2022/04/05 08:42:03;;;;;;;0.20;0.20;;;7.40;99.90;;;;;;5073844;28;20033;-73
2022/04/05 08:44:29;;;;;;;0.50;0.50;;;7.40;1.00;;;;;;5073708;28;20495;-74
2022/04/05 08:46:55;;;;;;;1.90;1.42;;;7.40;99.90;;;;;;5074236;28;20039;-74
2022/04/05 08:49:22;;;;;;;0.13;0.13;;;7.60;99.90;;;;;;5073872;28;20033;-74
2022/04/05 08:51:49;;;;;;;1.10;1.00;;;7.70;99.90;;;;;;5073930;28;20049;-74
2022/04/05 08:54:15;;;;;;;0.35;0.35;;;7.80;99.90;;;;;;5073814;28;20564;-74
2022/04/05 08:56:42;;;;;;;0.57;0.57;;;7.70;99.90;;;;;;5075899;28;20119;-74
2022/04/05 08:59:07;;;;;;;0.93;0.55;;;7.70;99.90;;;;;;5077300;28;20033;-74
2022/04/05 09:01:34;;;;;;;0.52;0.52;;;7.80;99.90;;;;;;5078296;28;20420;-74
2022/04/05 09:04:00;;;;;;;0.10;0.10;;;8.00;99.90;;;;;;5077384;28;20048;-73
2022/04/05 09:06:31;;;;;;;0.88;0.75;;;8.10;99.90;;;;;;5077654;28;20124;-74
2022/04/05 09:09:19;;;;;;;0.65;0.65;;;8.20;99.90;;;;;;5077755;28;20040;-74
2022/04/05 09:11:50;;;;;;;2.63;0.90;;;8.20;99.90;;;;;;5077851;28;20029;-74
2022/04/05 09:14:25;;;;;;;;;;;8.20;99.90;;;;;;5077693;28;20048;-74
2022/04/05 09:17:08;;;;;;;0.40;0.40;;;8.30;99.90;;;;;;5077532;28;19915;-73
2022/04/05 09:19:48;;;;;;;0.17;0.17;;;8.50;99.90;;;;;;5077496;28;20090;-74
2022/04/05 09:22:15;;;;;;;1.40;1.30;;;8.50;99.90;;;;;;5077777;28;20036;-74
2022/04/05 09:24:44;;;;;;;1.02;0.57;;;8.70;99.90;;;;;;5077202;28;20075;-73
2022/04/05 09:27:10;;;;;;;0.35;0.35;;;8.60;99.90;;;;;;5077628;28;20040;-74
2022/04/05 09:29:43;;;;;;;0.73;0.73;;;8.80;99.90;;;;;;5077064;28;20048;-74
2022/04/05 09:32:29;;;;;;;0.65;0.47;;;8.90;99.90;;;;;;5077236;28;20028;-74
2022/04/05 09:34:55;;;;;;;0.52;0.52;;;8.90;99.90;;;;;;5066360;28;20079;-73
2022/04/05 09:37:30;;;;;;;3.50;1.20;;;8.90;99.90;;;;;;5056704;28;20551;-71
2022/04/05 09:40:26;;;;;;;1.00;0.95;;;8.80;99.90;;;;;;5055436;28;20407;-72
2022/04/05 09:43:13;;;;;;;0.68;0.68;;;9.30;99.90;;;;;;5057786;28;20032;-72
2022/04/05 09:45:50;;;;;;;0.30;0.30;;;9.20;99.90;;;;;;5068771;28;20036;-72
2022/04/05 09:48:22;;;;;;;2.28;1.25;;;9.20;99.90;;;;;;5075985;28;20048;-72
2022/04/05 09:51:01;;;;;;;0.80;0.75;;;9.20;99.90;;;;;;5074956;28;20036;-72
2022/04/05 09:53:29;;;;;;;0.28;0.28;;;9.30;99.90;;;;;;5075436;28;20044;-72
2022/04/05 09:56:10;;;;;;;0.40;0.40;;;9.40;99.90;;;;;;5075800;28;20036;-71
2022/04/05 09:58:42;;;;;;;0.43;0.43;;;9.50;99.90;;;;;;5075781;28;20177;-71
2022/04/05 10:01:10;;;;;;;0.40;0.40;;;9.60;99.90;;;;;;5075816;28;20069;-72
2022/04/05 10:03:39;;;;;;;0.32;0.25;;;9.60;99.90;;;;;;5076226;28;20047;-72
2022/04/05 10:06:05;;;;;;;0.90;0.90;;;9.50;99.90;;;;;;5076274;28;20121;-72
2022/04/05 10:08:35;;;;;;;0.82;0.82;;;9.50;99.90;;;;;;5075392;28;20040;-72
2022/04/05 10:11:02;;;;;;;0.55;0.55;;;9.80;99.90;;;;;;5076028;28;20506;-71
2022/04/05 10:13:29;;;;;;;0.32;0.32;;;10.00;99.90;;;;;;5076204;28;20190;-72
2022/04/05 10:15:57;;;;;;;0.15;0.15;;;9.80;99.90;;;;;;5075801;28;20040;-72
2022/04/05 10:18:24;;;;;;;0.47;0.38;;;9.90;99.90;;;;;;5075796;28;20047;-71
2022/04/05 10:20:51;;;;;;;0.80;0.80;;;9.70;99.90;;;;;;5074086;28;20047;-72
2022/04/05 10:23:22;;;;;;;0.93;0.45;;;9.80;99.90;;;;;;5057797;28;20044;-73
2022/04/05 10:25:51;;;;;;;;;;;9.80;99.90;;;;;;5064640;28;20033;-71
2022/04/05 10:28:22;;;;;;;0.30;0.30;;;9.90;99.90;;;;;;5055692;28;19915;-71
2022/04/05 10:31:13;;;;;;;0.40;0.40;;;9.90;99.90;;;;;;5072323;28;20091;-71
2022/04/05 10:34:09;;;;;;;0.20;0.20;;;9.90;99.90;;;;;;5075157;28;20032;-70
2022/04/05 10:36:35;;;;;;;0.45;0.45;;;10.10;99.90;;;;;;5071956;28;20047;-71
2022/04/05 10:39:14;;;;;;;0.20;0.20;;;10.10;99.90;;;;;;5056447;28;20037;-71
2022/04/05 10:41:41;;;;;;;2.05;1.20;;;10.10;99.90;;;;;;5065265;28;20368;-70
2022/04/05 10:44:24;;;;;;;0.38;0.38;;;10.10;99.90;;;;;;5068189;28;20044;-70
2022/04/05 10:47:01;;;;;;;0.20;0.17;;;10.10;99.90;;;;;;5071356;28;20036;-70
2022/04/05 10:49:39;;;;;;;0.17;0.17;;;10.20;99.90;;;;;;5075444;28;20041;-70
2022/04/05 10:52:26;;;;;;;0.38;0.38;;;10.10;99.90;;;;;;5073720;28;20036;-70
2022/04/05 10:55:16;;;;;;;0.30;0.30;;;10.20;99.90;;;;;;5055067;28;20075;-70
2022/04/05 10:57:43;;;;;;;0.13;0.13;;;10.30;99.90;;;;;;5055554;28;20044;-70
2022/04/05 11:00:12;;;;;;;0.45;0.40;;;10.30;99.90;;;;;;5055514;28;20057;-70
2022/04/05 11:02:41;;;;;;;0.10;0.10;;;10.20;99.90;;;;;;5055140;28;20064;-70
2022/04/05 11:05:18;;;;;;;0.13;0.13;;;10.40;99.90;;;;;;5054674;28;20036;-70
2022/04/05 11:07:59;;;;;;;0.10;0.10;;;10.40;99.90;;;;;;5056381;28;20033;-70
2022/04/05 11:10:49;;;;;;;0.40;0.40;;;10.50;99.90;;;;;;5060478;28;20080;-70
2022/04/05 11:13:20;;;;;;;0.50;0.50;;;10.60;99.90;;;;;;5060892;28;20042;-70
2022/04/05 11:15:47;;;;;;;0.30;0.30;;;10.60;99.90;;;;;;5074488;28;20498;-70
2022/04/05 11:18:18;;;;;;;0.40;0.40;;;10.60;99.90;;;;;;5074949;28;20479;-70
2022/04/05 11:20:45;;;;;;;;;;;10.60;99.90;;;;;;5066950;28;20496;-70
2022/04/05 11:23:12;;;;;;;0.65;0.65;;;10.50;99.90;;;;;;5055036;28;19909;-71
2022/04/05 11:25:38;;;;;;;3.53;1.70;;;10.50;99.90;;;;;;5055038;28;20123;-70
2022/04/05 11:28:13;;;;;;;2.45;1.02;;;10.50;99.90;;;;;;5055329;28;20071;-70
2022/04/05 11:30:49;;;;;;;0.17;0.17;;;10.50;99.90;;;;;;5054874;28;20040;-70
2022/04/05 11:33:17;;;;;;;0.65;0.55;;;10.70;99.90;;;;;;5054137;28;20119;-71
2022/04/05 11:35:52;;;;;;;0.35;0.35;;;10.60;99.90;;;;;;5054744;28;20048;-70
2022/04/05 11:38:17;;;;;;;1.20;1.10;;;10.60;99.90;;;;;;5054177;28;20059;-71
2022/04/05 11:40:45;;;;;;;1.80;0.88;;;10.50;99.90;;;;;;5054252;28;20036;-71
2022/04/05 11:43:24;;;;;;;0.55;0.52;;;10.40;99.90;;;;;;5053754;28;20472;-71
2022/04/05 11:45:52;;;;;;;0.43;0.43;;;10.50;99.90;;;;;;5054555;28;20041;-71
2022/04/05 11:48:20;;;;;;;2.20;1.08;;;10.60;99.90;;;;;;5054490;28;20068;-71
2022/04/05 11:50:49;;;;;;;8.98;0.60;;;10.50;99.90;;;;;;5054451;28;20064;-71
2022/04/05 11:53:28;;;;;;;0.50;0.50;;;10.50;99.90;;;;;;5054720;28;20528;-71
2022/04/05 11:56:06;;;;;;;0.43;0.43;;;10.60;99.90;;;;;;5054756;28;20056;-71
2022/04/05 11:58:34;;;;;;;0.73;0.73;;;10.80;99.90;;;;;;5055213;28;20036;-71
2022/04/05 12:01:05;;;;;;;0.98;0.98;;;10.80;99.90;;;;;;5053655;28;20057;-71
2022/04/05 12:03:41;;;;;;;5.18;1.05;;;10.90;99.90;;;;;;5054386;28;20067;-71
2022/04/05 12:06:07;;;;;;;2.25;1.40;;;10.80;99.90;;;;;;5054024;28;20037;-71
2022/04/05 12:08:33;;;;;;;0.85;0.60;;;10.90;99.90;;;;;;5054019;28;20103;-71
2022/04/05 12:10:59;;;;;;;0.30;0.30;;;10.80;99.90;;;;;;5054380;28;20049;-71
2022/04/05 12:13:29;;;;;;;0.28;0.28;;;10.80;99.90;;;;;;5054130;28;20389;-71
2022/04/05 12:16:00;;;;;;;1.55;1.27;;;11.00;99.90;;;;;;5054091;28;20072;-71
2022/04/05 12:18:28;;;;;;;0.88;0.88;;;11.00;99.90;;;;;;5054222;28;20040;-71
2022/04/05 12:21:05;;;;;;;0.43;0.43;;;10.90;99.90;;;;;;5053856;28;20399;-71
2022/04/05 12:23:34;;;;;;;0.70;0.70;;;11.00;99.90;;;;;;5053854;28;20380;-71
2022/04/05 12:26:21;;;;;;;1.17;0.85;;;11.20;99.90;;;;;;5054070;28;20059;-71
2022/04/05 12:28:55;;;;;;;0.52;0.52;;;11.10;99.90;;;;;;5054254;28;20041;-71
2022/04/05 12:31:23;;;;;;;0.70;0.70;;;11.10;99.90;;;;;;5051860;28;20503;-70
2022/04/05 12:34:05;;;;;;;6.90;1.05;;;11.20;99.90;;;;;;5061150;28;20477;-70
2022/04/05 12:36:43;;;;;;;0.20;0.20;;;11.10;99.90;;;;;;5061696;28;20047;-70
2022/04/05 12:39:21;;;;;;;0.40;0.40;;;11.10;99.90;;;;;;5061421;28;20037;-71
2022/04/05 12:41:50;;;;;;;0.40;0.40;;;11.30;99.90;;;;;;5062727;28;20045;-70
2022/04/05 12:44:19;;;;;;;0.30;0.30;;;11.20;99.90;;;;;;5056413;28;20048;-71
2022/04/05 12:46:50;;;;;;;1.35;0.65;;;11.30;99.90;;;;;;5056504;28;20090;-71
2022/04/05 12:49:24;;;;;;;0.65;0.65;;;11.20;99.90;;;;;;5057168;28;20029;-71
2022/04/05 12:51:52;;;;;;;0.65;0.47;;;11.30;99.90;;;;;;5056858;28;20041;-71
2022/04/05 12:54:29;;;;;;;0.88;0.85;;;11.30;99.90;;;;;;5056116;28;20526;-71
2022/04/05 12:57:16;;;;;;;1.35;0.90;;;11.40;99.90;;;;;;5061916;28;20040;-71
2022/04/05 12:59:42;;;;;;;0.73;0.73;;;11.50;99.90;;;;;;5076900;28;20104;-71
2022/04/05 13:02:16;;;;;;;0.22;0.22;;;11.40;99.90;;;;;;5077771;28;20475;-71
2022/04/05 13:04:42;;;;;;;0.30;0.30;;;11.60;99.90;;;;;;5077697;28;20133;-71
2022/04/05 13:07:08;;;;;;;0.65;0.65;;;11.60;99.90;;;;;;5077366;28;20520;-71
2022/04/05 13:09:36;;;;;;;0.68;0.68;;;11.70;99.90;;;;;;5077757;28;20174;-71